Niagara University, New York
Current Conditions -  °F | °C
As of 9:53 AM on Thursday 25 Dec 2014 (Local Time) from KIAG Reporting Station
Overcast Overcast  
Wind Chill: 29°   Ceiling: 1900
Heat Index: 40°   Visibility: 10mi
Dew Point: 34°   Wind: 24mph
Humidity: 79%   Direction: 250°WSW
Pressure: 29.72"   Gusts: 37mph
Location:  43.13°N, 79.03°W
Report Text: KIAG 251453Z 25021G32KT 10SM BKN019 BKN023 OVC070 04/01 A2972 RMK AO2 PK WND 26032/1447 RAE15 SLP071 P0000 60000 T00440011 53043
Loading
Personal Weather Stations






























Interactive Weather Map New forecast layout! Learn more

10-Day Weather Forecast

Advertisements
Track Severe Weather on mobile